EST,Max TemperatureF,Mean TemperatureF,Min TemperatureF,Max Dew PointF,MeanDew PointF,Min DewpointF,Max Humidity, Mean Humidity, Min Humidity, Max Sea Level PressureIn, Mean Sea Level PressureIn, Min Sea Level PressureIn, Max VisibilityMiles, Mean VisibilityMiles, Min VisibilityMiles, Max Wind SpeedMPH, Mean Wind SpeedMPH, Max Gust SpeedMPH,PrecipitationIn, CloudCover, Events, WindDirDegrees
2013-2-1,19,15,10,7,3,1,76,63,49,30.33,30.21,29.97,10,10,4,25,17,31,T,6,Snow,253
2013-2-2,23,18,13,18,13,4,88,76,64,30.27,30.06,29.94,10,4,0,17,8,21,0.15,8,Fog-Snow,229
2013-2-3,20,11,2,16,10,1,91,79,67,30.06,29.96,29.88,10,7,1,23,8,29,0.02,8,Snow,262
2013-2-4,24,20,16,20,17,11,92,83,73,30.06,29.94,29.86,9,3,1,14,5,16,0.14,8,Snow,140
2013-2-5,28,23,18,25,19,15,92,80,68,29.98,29.91,29.84,10,5,0,15,5,18,0.03,8,Fog-Snow,233
2013-2-6,32,20,7,24,13,6,85,66,46,30.33,30.22,30.01,10,10,7,16,4,21,0.00,3,Snow,303
2013-2-7,40,32,23,30,22,14,85,72,59,30.29,30.10,29.83,10,9,4,15,7,17,0.05,4,,95
2013-2-8,32,26,20,30,24,14,92,80,68,30.37,30.00,29.76,10,6,1,24,11,32,0.15,7,Snow,334
2013-2-9,31,22,12,18,15,9,88,73,58,30.47,30.40,30.30,10,10,9,9,3,14,0.00,0,,119
2013-2-10,45,32,19,38,25,17,84,69,53,30.28,30.03,29.70,10,10,7,17,6,25,0.01,6,Rain,130
2013-2-11,47,40,32,41,29,21,89,74,59,29.94,29.75,29.61,10,10,9,36,21,49,T,7,Rain,233
2013-2-12,35,32,29,25,21,19,75,66,56,30.10,30.01,29.94,10,10,10,21,11,29,0.00,8,,272
2013-2-13,38,32,26,24,21,19,85,69,52,29.94,29.85,29.77,10,9,6,10,4,13,0.00,4,,263
2013-2-14,42,36,29,34,29,22,89,73,56,29.91,29.79,29.71,10,8,4,31,13,38,T,7,Rain,217
2013-2-15,33,28,23,23,18,11,75,61,47,30.15,30.05,29.91,10,10,10,18,9,25,0.00,6,,299
2013-2-16,29,22,15,19,13,4,84,67,49,30.14,30.06,29.99,10,8,1,21,8,24,T,7,Snow,282
2013-2-17,26,19,11,10,7,3,84,61,37,30.24,30.18,30.09,10,10,10,16,6,23,T,4,,309
2013-2-18,50,32,13,33,20,9,80,61,41,30.24,29.97,29.63,10,10,10,18,9,25,T,3,,165
2013-2-19,46,32,17,39,20,7,89,75,60,30.03,29.73,29.48,10,6,1,36,23,45,0.16,8,Rain-Snow,244
2013-2-20,22,20,17,16,11,8,80,71,62,30.28,30.15,29.99,10,6,0,23,14,30,0.03,8,Fog-Snow,281
2013-2-21,26,23,20,16,14,12,77,73,68,30.39,30.32,30.24,10,10,9,17,9,23,T,7,Snow,52
2013-2-22,35,29,22,34,24,15,100,89,77,30.25,29.97,29.88,10,4,0,21,9,26,0.34,8,Fog-Rain-Snow,125
2013-2-23,34,31,27,30,22,18,92,75,58,29.97,29.93,29.89,10,9,5,23,12,28,0.00,8,,252
2013-2-24,36,30,23,24,21,17,84,72,59,30.18,30.06,29.92,10,10,6,18,9,24,0.00,6,,261
2013-2-25,41,30,19,25,21,16,92,72,52,30.25,30.18,30.09,10,8,3,13,5,16,0.00,0,,90
2013-2-26,41,35,29,34,28,22,96,84,72,30.06,29.71,29.43,10,5,1,26,17,38,1.28,6,Rain-Snow,74
2013-2-27,36,34,32,34,31,29,100,95,89,29.62,29.56,29.44,10,4,1,17,9,21,0.43,8,Rain-Snow,220
2013-2-28,39,35,31,31,29,26,92,81,70,29.96,29.73,29.57,10,7,2,18,9,26,0.03,8,Rain-Snow,316